Terminal Aerodrome Forecast
Issued by NWS

Home | Current Version | Previous Version | Text Only | Print | Product List | Glossary On
Versions: 1 2 3 4 5 6 7 8 9 10 11 12 13 14 15 16 17
000
FTUS46 KSEW 192300
TAFPAE
TAF
KPAE 192331Z 2000/2024 18013G20KT P6SM FEW029 SCT045 OVC070
     FM200100 17012KT P6SM OVC100
     FM200500 15012KT P6SM OVC050
     FM200800 15012KT P6SM -RA SCT020 OVC040
     FM201600 15014G22KT P6SM -RA OVC020
     FM202000 17018G26KT 2SM -RA BR OVC015=

USA.gov is the U.S. government's official web portal to all federal, state and local government web resources and services.